SWR9TC LSZH-EGCC
Flight info
| Callsign | SWR9TC |
|---|---|
| Flight time | N/A |
| Altitude | 38000 |
| Route | VEBIT T10 TORPA DCT REKLA DCT RLP DCT ROTSI DCT KOTUN DCT AMAXA DCT VESAN DCT RATUK DCT SOVAT L613 SANDY UN57 WELIN T420 ELVOS |
| Aircraft | B77W/H-SDE1E2E3FGHIJ2J3J4J5M1RWXY/LB1D1 |
Departure
| Time | 2026-04-30 15:04 |
|---|---|
| Airport | Zürich Airport (LSZH) |
Arrival
| Time | N/A |
|---|---|
| Airport | Manchester Airport (EGCC) |
| Time | Latitude | Longitude | Altitude | Speed | Heading |
|---|---|---|---|---|---|
| 2026-04-30 14:58 | 47.46250 | 8.55336 | 1391 ft | 2 kts | 239° |
| 2026-04-30 14:58 | 47.46256 | 8.55355 | 1391 ft | 2 kts | 250° |
| 2026-04-30 14:58 | 47.46262 | 8.55398 | 1391 ft | 2 kts | 272° |
| 2026-04-30 14:59 | 47.46261 | 8.55408 | 1391 ft | 0 kts | 277° |
| 2026-04-30 15:01 | 47.46274 | 8.55199 | 1391 ft | 19 kts | 276° |
| 2026-04-30 15:01 | 47.46285 | 8.55053 | 1391 ft | 22 kts | 277° |
| 2026-04-30 15:01 | 47.46429 | 8.54652 | 1389 ft | 20 kts | 335° |
| 2026-04-30 15:02 | 47.46589 | 8.54547 | 1388 ft | 29 kts | 336° |
| 2026-04-30 15:02 | 47.46811 | 8.54405 | 1388 ft | 39 kts | 338° |
| 2026-04-30 15:03 | 47.47488 | 8.53944 | 1391 ft | 31 kts | 336° |
| 2026-04-30 15:03 | 47.47528 | 8.53642 | 1394 ft | 18 kts | 185° |
| 2026-04-30 15:04 | 47.46826 | 8.54107 | 1388 ft | 124 kts | 155° |
| 2026-04-30 15:04 | 47.43325 | 8.56367 | 3155 ft | 194 kts | 152° |
| 2026-04-30 15:05 | 47.41530 | 8.61573 | 4623 ft | 220 kts | 72° |
| 2026-04-30 15:06 | 47.43617 | 8.64668 | 5948 ft | 232 kts | 15° |
| 2026-04-30 15:06 | 47.46666 | 8.63357 | 7302 ft | 251 kts | 312° |
| 2026-04-30 15:07 | 47.47142 | 8.58456 | 8677 ft | 258 kts | 244° |
| 2026-04-30 15:07 | 47.45739 | 8.53657 | 10072 ft | 262 kts | 262° |
| 2026-04-30 15:08 | 47.45125 | 8.48003 | 10757 ft | 300 kts | 246° |
| 2026-04-30 15:08 | 47.41378 | 8.39662 | 12072 ft | 352 kts | 235° |
| 2026-04-30 15:09 | 47.38538 | 8.33404 | 13146 ft | 385 kts | 241° |
| 2026-04-30 15:09 | 47.35974 | 8.26222 | 14679 ft | 407 kts | 242° |
| 2026-04-30 15:10 | 47.33324 | 8.18757 | 16676 ft | 421 kts | 242° |
| 2026-04-30 15:11 | 47.28114 | 8.02925 | 20601 ft | 443 kts | 255° |
| 2026-04-30 15:11 | 47.27439 | 7.93943 | 22486 ft | 448 kts | 275° |
| 2026-04-30 15:12 | 47.28752 | 7.80152 | 24981 ft | 465 kts | 281° |
| 2026-04-30 15:13 | 47.29684 | 7.70673 | 26525 ft | 477 kts | 280° |
| 2026-04-30 15:14 | 47.32927 | 7.51441 | 29480 ft | 495 kts | 290° |
| 2026-04-30 15:14 | 47.36057 | 7.37061 | 32387 ft | 489 kts | 290° |
| 2026-04-30 15:16 | 47.41031 | 7.13297 | 35762 ft | 484 kts | 285° |
| 2026-04-30 15:17 | 47.43818 | 6.94371 | 38186 ft | 471 kts | 284° |
| 2026-04-30 15:19 | 47.48635 | 6.56451 | 38158 ft | 473 kts | 278° |